createdAt,value
2022-11-29T00:00:21.598Z,6.83
2022-11-29T00:02:47.814Z,6.69
2022-11-29T00:05:13.981Z,6.76
2022-11-29T00:07:40.122Z,6.75
2022-11-29T00:10:06.252Z,6.77
2022-11-29T00:12:32.380Z,6.75
2022-11-29T00:14:58.481Z,6.78
2022-11-29T00:17:24.567Z,6.72
2022-11-29T00:19:50.699Z,6.79
2022-11-29T00:22:16.805Z,6.80
2022-11-29T00:24:43.064Z,6.76
2022-11-29T00:27:09.356Z,6.76
2022-11-29T00:29:35.502Z,6.80
2022-11-29T00:32:01.643Z,6.76
2022-11-29T00:34:27.748Z,6.78
2022-11-29T00:36:53.848Z,6.74
2022-11-29T00:39:19.952Z,6.72
2022-11-29T00:41:46.059Z,6.77
2022-11-29T00:44:18.391Z,6.71
2022-11-29T00:46:46.133Z,6.75
2022-11-29T00:49:12.246Z,6.71
2022-11-29T00:51:38.351Z,6.71
2022-11-29T00:54:04.435Z,6.66
2022-11-29T00:56:30.542Z,6.69
2022-11-29T00:58:56.623Z,6.66
2022-11-29T01:01:22.741Z,6.68
2022-11-29T01:03:48.901Z,6.73
2022-11-29T01:06:14.996Z,6.73
2022-11-29T01:08:41.102Z,6.69
2022-11-29T01:11:07.222Z,6.67
2022-11-29T01:13:33.349Z,6.74
2022-11-29T01:15:59.453Z,6.70
2022-11-29T01:18:25.557Z,6.71
2022-11-29T01:20:51.683Z,6.70
2022-11-29T01:23:17.775Z,6.68
2022-11-29T01:25:43.907Z,6.69
2022-11-29T01:28:10.000Z,6.74
2022-11-29T01:30:36.136Z,6.70
2022-11-29T01:33:02.253Z,6.73
2022-11-29T01:35:28.354Z,6.77
2022-11-29T01:37:54.461Z,6.71
2022-11-29T01:40:20.584Z,6.76
2022-11-29T01:42:46.670Z,6.78
2022-11-29T01:45:12.769Z,6.79
2022-11-29T01:47:38.884Z,6.78
2022-11-29T01:50:04.986Z,6.78
2022-11-29T01:52:31.084Z,6.77
2022-11-29T01:54:57.209Z,6.80
2022-11-29T01:57:23.298Z,6.80
2022-11-29T01:59:49.382Z,6.80
2022-11-29T02:02:15.550Z,6.80
2022-11-29T02:04:41.730Z,6.82
2022-11-29T02:07:07.913Z,6.82
2022-11-29T02:09:34.020Z,6.88
2022-11-29T02:12:00.136Z,6.92
2022-11-29T02:14:26.251Z,6.82
2022-11-29T02:16:56.520Z,6.83
2022-11-29T02:19:22.922Z,6.85
2022-11-29T02:21:49.024Z,6.80
2022-11-29T02:24:15.130Z,6.80
2022-11-29T02:26:41.235Z,6.90
2022-11-29T02:29:07.336Z,6.86
2022-11-29T02:31:33.769Z,6.82
2022-11-29T02:33:59.859Z,6.83
2022-11-29T02:36:25.964Z,6.86
2022-11-29T02:38:52.066Z,6.88
2022-11-29T02:41:18.158Z,6.92
2022-11-29T02:43:44.259Z,6.79
2022-11-29T02:46:10.404Z,7.01
2022-11-29T02:48:36.538Z,6.99
2022-11-29T02:51:02.645Z,6.98
2022-11-29T02:53:28.773Z,6.89
2022-11-29T02:55:54.870Z,6.83
2022-11-29T02:58:20.963Z,6.92
2022-11-29T03:00:47.083Z,6.92
2022-11-29T03:03:13.188Z,7.04
2022-11-29T03:05:39.282Z,7.00
2022-11-29T03:08:05.392Z,6.98
2022-11-29T03:10:31.493Z,6.94
2022-11-29T03:12:57.600Z,7.07
2022-11-29T03:15:23.847Z,7.01
2022-11-29T03:17:50.028Z,7.04
2022-11-29T03:20:16.119Z,7.03
2022-11-29T03:22:42.256Z,6.99
2022-11-29T03:25:08.360Z,7.05
2022-11-29T03:27:34.459Z,7.00
2022-11-29T03:30:00.592Z,7.02
2022-11-29T03:32:26.684Z,7.01
2022-11-29T03:34:56.958Z,7.00
2022-11-29T03:37:24.084Z,7.05
2022-11-29T03:39:50.194Z,7.04
2022-11-29T03:42:16.282Z,6.99
2022-11-29T03:44:42.717Z,6.90
2022-11-29T03:47:08.978Z,7.04
2022-11-29T03:49:35.073Z,7.08
2022-11-29T03:52:01.162Z,6.97
2022-11-29T03:54:27.258Z,7.04
2022-11-29T03:56:53.351Z,7.02
2022-11-29T03:59:19.486Z,6.95
2022-11-29T04:01:45.630Z,7.08
2022-11-29T04:04:11.763Z,7.03
2022-11-29T04:06:37.870Z,6.94
2022-11-29T04:09:03.959Z,7.00
2022-11-29T04:11:30.073Z,7.02
2022-11-29T04:13:56.196Z,7.01
2022-11-29T04:16:22.329Z,6.93
2022-11-29T04:18:48.443Z,6.92
2022-11-29T04:21:15.338Z,6.89
2022-11-29T04:23:41.436Z,6.92
2022-11-29T04:26:07.525Z,6.86
2022-11-29T04:28:33.641Z,6.93
2022-11-29T04:30:59.856Z,6.82
2022-11-29T04:33:25.974Z,6.78
2022-11-29T04:35:52.079Z,6.74
2022-11-29T04:38:18.174Z,6.73
2022-11-29T04:40:44.257Z,6.76
2022-11-29T04:43:10.359Z,6.79
2022-11-29T04:45:36.442Z,6.73
2022-11-29T04:48:02.545Z,6.77
2022-11-29T04:50:28.649Z,6.70
2022-11-29T04:52:54.736Z,6.59
2022-11-29T04:55:27.684Z,6.59
2022-11-29T04:57:56.694Z,6.58
2022-11-29T05:00:22.779Z,6.51
2022-11-29T05:02:48.916Z,6.46
2022-11-29T05:05:15.034Z,6.52
2022-11-29T05:07:41.139Z,6.54
2022-11-29T05:10:07.256Z,6.55
2022-11-29T05:12:33.371Z,6.55
2022-11-29T05:14:59.460Z,6.52
2022-11-29T05:17:25.554Z,6.54
2022-11-29T05:19:51.672Z,6.47
2022-11-29T05:22:17.769Z,6.43
2022-11-29T05:24:44.136Z,6.45
2022-11-29T05:27:10.434Z,6.39
2022-11-29T05:29:36.559Z,6.39
2022-11-29T05:32:02.661Z,6.43
2022-11-29T05:34:34.520Z,6.46
2022-11-29T05:37:00.911Z,6.52
2022-11-29T05:39:26.996Z,6.37
2022-11-29T05:41:53.395Z,6.42
2022-11-29T05:44:19.479Z,6.39
2022-11-29T05:46:45.612Z,6.36
2022-11-29T05:49:11.745Z,6.33
2022-11-29T05:51:37.838Z,6.40
2022-11-29T05:54:03.951Z,6.36
2022-11-29T05:56:30.106Z,6.36
2022-11-29T05:58:56.201Z,6.38
2022-11-29T06:01:22.291Z,6.43
2022-11-29T06:03:48.416Z,6.44
2022-11-29T06:06:14.521Z,6.38
2022-11-29T06:08:40.615Z,6.36
2022-11-29T06:11:06.725Z,6.43
2022-11-29T06:13:32.835Z,6.47
2022-11-29T06:15:58.970Z,6.36
2022-11-29T06:18:25.133Z,6.36
2022-11-29T06:20:51.226Z,6.28
2022-11-29T06:23:17.308Z,6.38
2022-11-29T06:25:43.430Z,6.34
2022-11-29T06:28:09.519Z,6.37
2022-11-29T06:30:35.611Z,6.37
2022-11-29T06:33:01.729Z,6.35
2022-11-29T06:35:27.826Z,6.31
2022-11-29T06:37:53.919Z,6.32
2022-11-29T06:40:20.031Z,6.27
2022-11-29T06:42:46.128Z,6.29
2022-11-29T06:45:12.221Z,6.29
2022-11-29T06:47:38.598Z,6.20
2022-11-29T06:50:04.700Z,6.27
2022-11-29T06:52:30.800Z,6.37
2022-11-29T06:54:56.920Z,6.41
2022-11-29T06:57:23.007Z,6.37
2022-11-29T06:59:49.106Z,6.26
2022-11-29T07:02:15.264Z,6.26
2022-11-29T07:04:45.891Z,6.14
2022-11-29T07:07:12.512Z,6.22
2022-11-29T07:09:38.630Z,6.23
2022-11-29T07:12:04.729Z,6.17
2022-11-29T07:14:30.832Z,6.16
2022-11-29T07:16:57.571Z,6.23
2022-11-29T07:19:23.839Z,6.14
2022-11-29T07:21:49.939Z,6.15
2022-11-29T07:24:16.042Z,6.19
2022-11-29T07:26:42.139Z,6.13
2022-11-29T07:29:08.472Z,6.07
2022-11-29T07:31:34.735Z,6.07
2022-11-29T07:34:00.890Z,6.10
2022-11-29T07:36:26.990Z,6.14
2022-11-29T07:38:53.101Z,6.14
2022-11-29T07:41:19.212Z,6.22
2022-11-29T07:43:45.312Z,6.15
2022-11-29T07:46:11.446Z,6.22
2022-11-29T07:48:37.539Z,6.28
2022-11-29T07:51:03.633Z,6.29
2022-11-29T07:53:29.750Z,6.28
2022-11-29T07:55:55.854Z,6.29
2022-11-29T07:58:21.993Z,6.39
2022-11-29T08:00:48.183Z,6.40
2022-11-29T08:03:14.320Z,6.38
2022-11-29T08:05:40.403Z,6.30
2022-11-29T08:08:06.530Z,6.36
2022-11-29T08:10:32.650Z,6.40
2022-11-29T08:12:58.744Z,6.30
2022-11-29T08:15:24.866Z,6.38
2022-11-29T08:17:50.985Z,6.27
2022-11-29T08:20:17.079Z,6.32
2022-11-29T08:22:43.207Z,6.35
2022-11-29T08:25:09.306Z,6.39
2022-11-29T08:27:35.436Z,6.27
2022-11-29T08:30:02.196Z,6.21
2022-11-29T08:32:28.291Z,6.23
2022-11-29T08:34:54.392Z,6.14
2022-11-29T08:37:20.511Z,6.15
2022-11-29T08:39:46.604Z,6.14
2022-11-29T08:42:12.701Z,6.21
2022-11-29T08:44:38.820Z,6.26
2022-11-29T08:47:04.932Z,6.30
2022-11-29T08:49:31.016Z,6.23
2022-11-29T08:51:57.435Z,6.17
2022-11-29T08:54:23.524Z,6.23
2022-11-29T08:57:37.937Z,6.21
2022-11-29T08:59:35.717Z,6.33
2022-11-29T09:02:01.844Z,6.29
2022-11-29T09:04:28.017Z,6.35
2022-11-29T09:06:54.133Z,6.52
2022-11-29T09:09:20.211Z,6.69
2022-11-29T09:11:49.456Z,6.51
2022-11-29T09:14:15.897Z,6.63
2022-11-29T09:16:42.026Z,6.72
2022-11-29T09:19:08.134Z,6.66
2022-11-29T09:21:34.235Z,6.68
2022-11-29T09:24:00.359Z,6.54
2022-11-29T09:26:26.487Z,6.63
2022-11-29T09:28:52.625Z,6.71
2022-11-29T09:31:18.758Z,6.69
2022-11-29T09:33:44.864Z,6.79
2022-11-29T09:36:11.511Z,6.71
2022-11-29T09:38:37.607Z,6.74
2022-11-29T09:41:03.699Z,6.89
2022-11-29T09:43:29.821Z,6.65
2022-11-29T09:45:55.925Z,6.68
2022-11-29T09:48:22.034Z,6.96
2022-11-29T09:50:48.173Z,7.02
2022-11-29T09:53:14.267Z,7.10
2022-11-29T09:55:40.356Z,6.84
2022-11-29T09:58:06.477Z,6.77
2022-11-29T10:00:32.599Z,6.76
2022-11-29T10:02:58.775Z,6.94
2022-11-29T10:05:24.928Z,7.16
2022-11-29T10:07:51.077Z,7.20
2022-11-29T10:10:17.276Z,7.14
2022-11-29T10:12:43.425Z,7.21
2022-11-29T10:15:09.580Z,7.24
2022-11-29T10:17:35.706Z,7.18
2022-11-29T10:20:01.855Z,7.02
2022-11-29T10:22:27.979Z,6.88
2022-11-29T10:24:54.080Z,6.85
2022-11-29T10:27:20.216Z,6.82
2022-11-29T10:29:46.351Z,6.81
2022-11-29T10:32:12.451Z,6.85
2022-11-29T10:34:38.552Z,6.94
2022-11-29T10:37:04.645Z,6.87
2022-11-29T10:39:30.743Z,6.87
2022-11-29T10:41:56.862Z,7.15
2022-11-29T10:44:22.961Z,6.92
2022-11-29T10:46:49.057Z,7.11
2022-11-29T10:49:15.170Z,7.18
2022-11-29T10:51:41.261Z,7.13
2022-11-29T10:54:07.356Z,6.98
2022-11-29T10:56:33.468Z,7.20
2022-11-29T10:58:59.573Z,7.23
2022-11-29T11:01:25.811Z,7.17
2022-11-29T11:03:53.118Z,7.49
2022-11-29T11:06:19.328Z,7.66
2022-11-29T11:08:45.425Z,7.61
2022-11-29T11:11:11.536Z,7.27
2022-11-29T11:13:37.656Z,7.34
2022-11-29T11:16:03.785Z,7.28
2022-11-29T11:18:29.892Z,7.33
2022-11-29T11:20:55.990Z,7.35
2022-11-29T11:23:22.088Z,7.30
2022-11-29T11:25:48.321Z,7.43
2022-11-29T11:28:14.455Z,7.26
2022-11-29T11:30:40.588Z,7.15
2022-11-29T11:33:06.750Z,7.23
2022-11-29T11:35:32.852Z,7.09
2022-11-29T11:37:58.950Z,7.40
2022-11-29T11:40:25.125Z,7.48
2022-11-29T11:42:51.272Z,7.29
2022-11-29T11:45:17.365Z,7.59
2022-11-29T11:47:43.486Z,7.55
2022-11-29T11:50:09.593Z,7.42
2022-11-29T11:52:39.775Z,7.42
2022-11-29T11:55:07.323Z,7.50
2022-11-29T11:57:33.418Z,7.38
2022-11-29T12:00:05.024Z,7.36
2022-11-29T12:02:33.029Z,7.50
2022-11-29T12:04:59.216Z,7.50
2022-11-29T12:07:45.002Z,7.52
2022-11-29T12:10:11.442Z,7.40
2022-11-29T12:12:37.538Z,7.53
2022-11-29T12:15:03.633Z,7.50
2022-11-29T12:17:29.736Z,7.57
2022-11-29T12:19:55.863Z,7.42
2022-11-29T12:22:22.018Z,7.41
2022-11-29T12:24:48.348Z,7.37
2022-11-29T12:27:14.618Z,7.43
2022-11-29T12:29:40.737Z,7.51
2022-11-29T12:32:06.864Z,7.42
2022-11-29T12:34:32.951Z,7.31
2022-11-29T12:36:59.054Z,7.39
2022-11-29T12:39:25.723Z,7.30
2022-11-29T12:41:54.185Z,7.63
2022-11-29T12:44:20.524Z,7.77
2022-11-29T12:46:46.703Z,7.82
2022-11-29T12:49:12.834Z,7.50
2022-11-29T12:51:38.930Z,7.84
2022-11-29T12:54:05.044Z,7.56
2022-11-29T12:56:31.142Z,7.72
2022-11-29T12:58:57.242Z,7.42
2022-11-29T13:01:23.475Z,7.66
2022-11-29T13:03:49.663Z,7.52
2022-11-29T13:06:15.770Z,7.38
2022-11-29T13:08:41.934Z,7.22
2022-11-29T13:11:08.050Z,7.43
2022-11-29T13:13:34.211Z,7.08
2022-11-29T13:16:00.483Z,7.18
2022-11-29T13:18:26.659Z,7.18
2022-11-29T13:20:52.758Z,7.34
2022-11-29T13:23:20.744Z,7.51
2022-11-29T13:25:46.957Z,7.47
2022-11-29T13:28:13.048Z,7.60
2022-11-29T13:30:39.163Z,7.43
2022-11-29T13:33:05.273Z,7.60
2022-11-29T13:35:31.374Z,7.38
2022-11-29T13:37:57.496Z,7.55
2022-11-29T13:40:23.605Z,7.52
2022-11-29T13:42:49.707Z,7.57
2022-11-29T13:45:16.263Z,7.61
2022-11-29T13:47:42.365Z,7.54
2022-11-29T13:50:08.460Z,7.56
2022-11-29T13:52:34.559Z,7.58
2022-11-29T13:55:00.665Z,7.54
2022-11-29T13:57:26.767Z,7.29
2022-11-29T13:59:52.885Z,7.43
2022-11-29T14:02:18.993Z,7.41
2022-11-29T14:04:45.419Z,7.33
2022-11-29T14:07:11.719Z,7.24
2022-11-29T14:09:37.807Z,7.34
2022-11-29T14:12:03.912Z,7.40
2022-11-29T14:14:30.524Z,7.27
2022-11-29T14:16:56.619Z,7.28
2022-11-29T14:19:22.707Z,7.29
2022-11-29T14:21:48.864Z,7.34
2022-11-29T14:24:15.633Z,7.20
2022-11-29T14:26:41.738Z,7.21
2022-11-29T14:29:07.863Z,7.24
2022-11-29T14:31:34.052Z,7.14
2022-11-29T14:34:00.176Z,7.07
2022-11-29T14:36:26.288Z,7.10
2022-11-29T14:38:52.380Z,7.07
2022-11-29T14:41:18.484Z,7.16
2022-11-29T14:43:44.625Z,7.10
2022-11-29T14:46:10.754Z,7.11
2022-11-29T14:48:36.887Z,7.09
2022-11-29T14:51:03.005Z,7.15
2022-11-29T14:53:29.163Z,7.17
2022-11-29T14:55:55.256Z,7.06
2022-11-29T14:58:21.376Z,6.97
2022-11-29T15:00:47.484Z,6.85
2022-11-29T15:03:13.622Z,6.94
2022-11-29T15:05:39.745Z,6.89
2022-11-29T15:08:05.850Z,6.93
2022-11-29T15:10:31.941Z,6.97
2022-11-29T15:12:58.105Z,6.91
2022-11-29T15:15:24.214Z,6.79
2022-11-29T15:17:50.311Z,6.83
2022-11-29T15:20:16.419Z,6.90
2022-11-29T15:22:42.516Z,6.86
2022-11-29T15:25:08.620Z,6.82
2022-11-29T15:27:39.884Z,6.78
2022-11-29T15:30:06.327Z,6.79
2022-11-29T15:32:32.425Z,6.71
2022-11-29T15:34:58.531Z,6.77
2022-11-29T15:37:24.627Z,6.78
2022-11-29T15:39:50.721Z,6.83
2022-11-29T15:42:16.834Z,6.83
2022-11-29T15:44:43.050Z,6.85
2022-11-29T15:47:09.213Z,6.76
2022-11-29T15:49:35.329Z,6.76
2022-11-29T15:52:01.432Z,6.72
2022-11-29T15:54:27.519Z,6.78
2022-11-29T15:56:53.629Z,6.83
2022-11-29T15:59:19.725Z,6.75
2022-11-29T16:01:45.867Z,6.68
2022-11-29T16:04:12.012Z,6.71
2022-11-29T16:06:38.107Z,6.72
2022-11-29T16:09:04.221Z,6.68
2022-11-29T16:11:30.326Z,6.56
2022-11-29T16:13:56.439Z,6.64
2022-11-29T16:16:22.650Z,6.66
2022-11-29T16:18:49.155Z,6.62
2022-11-29T16:21:15.261Z,6.53
2022-11-29T16:23:41.354Z,6.60
2022-11-29T16:26:07.461Z,6.57
2022-11-29T16:28:33.550Z,6.69
2022-11-29T16:30:59.656Z,6.63
2022-11-29T16:33:25.763Z,6.55
2022-11-29T16:35:52.132Z,6.51
2022-11-29T16:38:18.253Z,6.57
2022-11-29T16:40:44.365Z,6.57
2022-11-29T16:43:10.469Z,6.52
2022-11-29T16:45:36.588Z,6.58
2022-11-29T16:48:02.792Z,6.57
2022-11-29T16:50:28.935Z,6.56
2022-11-29T16:52:56.867Z,6.55
2022-11-29T16:55:23.187Z,6.51
2022-11-29T16:57:49.281Z,6.56
2022-11-29T17:00:15.392Z,6.56
2022-11-29T17:02:41.529Z,6.56
2022-11-29T17:05:07.649Z,6.51
2022-11-29T17:07:33.766Z,6.53
2022-11-29T17:09:59.900Z,6.48
2022-11-29T17:12:25.994Z,6.39
2022-11-29T17:14:52.088Z,6.45
2022-11-29T17:17:18.202Z,6.44
2022-11-29T17:19:44.306Z,6.40
2022-11-29T17:22:10.399Z,6.39
2022-11-29T17:24:36.804Z,6.27
2022-11-29T17:27:02.899Z,6.36
2022-11-29T17:29:29.009Z,6.42
2022-11-29T17:31:55.192Z,6.38
2022-11-29T17:34:21.328Z,6.37
2022-11-29T17:36:47.472Z,6.45
2022-11-29T17:39:13.585Z,6.35
2022-11-29T17:41:39.678Z,6.33
2022-11-29T17:44:05.772Z,6.35
2022-11-29T17:46:31.889Z,6.39
2022-11-29T17:48:57.988Z,6.37
2022-11-29T17:54:10.709Z,6.42
2022-11-29T17:56:36.805Z,6.44
2022-11-29T17:59:02.896Z,6.49
2022-11-29T18:01:29.097Z,6.41
2022-11-29T18:03:55.252Z,6.47
2022-11-29T18:06:21.348Z,6.39
2022-11-29T18:08:47.465Z,6.40
2022-11-29T18:11:13.561Z,6.43
2022-11-29T18:13:39.662Z,6.40
2022-11-29T18:16:05.768Z,6.26
2022-11-29T18:18:31.875Z,6.39
2022-11-29T18:20:57.967Z,6.38
2022-11-29T18:23:24.081Z,6.40
2022-11-29T18:25:50.178Z,6.33
2022-11-29T18:28:16.293Z,6.29
2022-11-29T18:30:42.475Z,6.30
2022-11-29T18:33:08.596Z,6.24
2022-11-29T18:35:34.696Z,6.29
2022-11-29T18:38:16.659Z,6.29
2022-11-29T18:40:42.973Z,6.30
2022-11-29T18:43:09.081Z,6.19
2022-11-29T18:45:35.179Z,6.32
2022-11-29T18:48:01.274Z,6.35
2022-11-29T18:50:27.378Z,6.37
2022-11-29T18:52:53.467Z,6.29
2022-11-29T18:55:19.555Z,6.27
2022-11-29T18:57:46.447Z,6.31
2022-11-29T19:00:12.545Z,6.25
2022-11-29T19:02:38.664Z,6.23
2022-11-29T19:05:04.796Z,6.27
2022-11-29T19:07:30.926Z,6.26
2022-11-29T19:09:57.039Z,6.28
2022-11-29T19:12:23.159Z,6.28
2022-11-29T19:14:50.186Z,6.26
2022-11-29T19:17:16.448Z,6.16
2022-11-29T19:19:42.620Z,6.25
2022-11-29T19:22:08.826Z,6.14
2022-11-29T19:24:34.921Z,6.12
2022-11-29T19:27:01.088Z,6.17
2022-11-29T19:29:27.185Z,6.09
2022-11-29T19:31:53.286Z,6.11
2022-11-29T19:34:19.680Z,6.17
2022-11-29T19:36:45.767Z,6.30
2022-11-29T19:39:11.871Z,6.28
2022-11-29T19:41:37.996Z,6.21
2022-11-29T19:44:04.106Z,6.27
2022-11-29T19:46:30.234Z,6.14
2022-11-29T19:48:56.384Z,6.17
2022-11-29T19:51:22.485Z,6.22
2022-11-29T19:53:48.594Z,6.27
2022-11-29T19:56:14.696Z,6.26
2022-11-29T19:58:40.794Z,6.38
2022-11-29T20:01:06.892Z,6.33
2022-11-29T20:03:33.009Z,6.30
2022-11-29T20:05:59.106Z,6.24
2022-11-29T20:08:25.212Z,6.17
2022-11-29T20:10:51.318Z,6.22
2022-11-29T20:13:17.405Z,6.29
2022-11-29T20:15:43.539Z,6.16
2022-11-29T20:18:09.691Z,6.17
2022-11-29T20:20:35.798Z,6.25
2022-11-29T20:23:01.899Z,6.23
2022-11-29T20:25:28.027Z,6.19
2022-11-29T20:27:54.124Z,6.17
2022-11-29T20:30:20.229Z,6.24
2022-11-29T20:32:48.465Z,6.34
2022-11-29T20:35:14.569Z,6.13
2022-11-29T20:37:40.665Z,6.16
2022-11-29T20:40:06.780Z,6.19
2022-11-29T20:42:32.879Z,6.08
2022-11-29T20:44:58.973Z,6.18
2022-11-29T20:47:25.191Z,6.09
2022-11-29T20:49:51.306Z,6.09
2022-11-29T20:52:17.396Z,6.09
2022-11-29T20:54:43.506Z,6.09
2022-11-29T20:57:09.604Z,6.07
2022-11-29T20:59:35.696Z,5.95
2022-11-29T21:02:01.876Z,6.06
2022-11-29T21:04:28.034Z,6.00
2022-11-29T21:06:54.134Z,5.89
2022-11-29T21:09:20.237Z,5.96
2022-11-29T21:11:46.350Z,5.94
2022-11-29T21:14:12.446Z,5.92
2022-11-29T21:16:38.568Z,5.98
2022-11-29T21:19:04.659Z,5.97
2022-11-29T21:21:30.750Z,6.01
2022-11-29T21:23:56.873Z,5.89
2022-11-29T21:26:22.979Z,5.76
2022-11-29T21:28:49.086Z,5.69
2022-11-29T21:31:15.238Z,5.65
2022-11-29T21:33:41.399Z,5.68
2022-11-29T21:36:07.492Z,5.67
2022-11-29T21:38:34.102Z,5.60
2022-11-29T21:41:00.197Z,5.48
2022-11-29T21:43:57.931Z,5.60
2022-11-29T21:46:12.490Z,5.50
2022-11-29T21:48:38.619Z,5.53
2022-11-29T21:51:04.710Z,5.57
2022-11-29T21:53:30.847Z,5.57
2022-11-29T21:55:56.950Z,5.65
2022-11-29T21:58:23.035Z,5.55
2022-11-29T22:00:49.144Z,5.58
2022-11-29T22:03:15.244Z,5.54
2022-11-29T22:05:41.327Z,5.55
2022-11-29T22:08:07.454Z,5.55
2022-11-29T22:10:33.548Z,5.56
2022-11-29T22:12:59.648Z,5.60
2022-11-29T22:15:25.746Z,5.52
2022-11-29T22:17:51.834Z,5.53
2022-11-29T22:20:17.924Z,5.59
2022-11-29T22:22:44.082Z,5.61
2022-11-29T22:25:10.177Z,5.65
2022-11-29T22:27:36.274Z,5.55
2022-11-29T22:30:02.415Z,5.67
2022-11-29T22:32:28.511Z,5.57
2022-11-29T22:34:54.622Z,5.53
2022-11-29T22:37:20.754Z,5.58
2022-11-29T22:39:46.859Z,5.60
2022-11-29T22:42:12.955Z,5.67
2022-11-29T22:44:39.103Z,5.58
2022-11-29T22:47:05.213Z,5.52
2022-11-29T22:49:31.310Z,5.60
2022-11-29T22:51:57.424Z,5.62
2022-11-29T22:54:23.554Z,5.64
2022-11-29T22:56:49.652Z,5.64
2022-11-29T22:59:15.769Z,5.62
2022-11-29T23:01:42.008Z,5.66
2022-11-29T23:04:08.200Z,5.76
2022-11-29T23:06:34.855Z,5.80
2022-11-29T23:09:01.044Z,5.64
2022-11-29T23:11:27.142Z,5.66
2022-11-29T23:13:53.257Z,5.62
2022-11-29T23:16:19.371Z,5.67
2022-11-29T23:18:45.491Z,5.69
2022-11-29T23:21:11.600Z,5.67
2022-11-29T23:23:37.697Z,5.76
2022-11-29T23:26:03.782Z,5.82
2022-11-29T23:28:29.903Z,5.72
2022-11-29T23:30:56.004Z,5.79
2022-11-29T23:33:22.092Z,5.78
2022-11-29T23:35:48.223Z,5.74
2022-11-29T23:38:14.303Z,5.77
2022-11-29T23:40:40.424Z,5.87
2022-11-29T23:43:06.541Z,5.88
2022-11-29T23:45:32.704Z,5.82
2022-11-29T23:47:58.840Z,5.73
2022-11-29T23:50:24.936Z,5.82
2022-11-29T23:52:51.028Z,5.74
2022-11-29T23:55:17.273Z,5.73
2022-11-29T23:57:43.380Z,5.62
